Time;durP1;ratioP1;P1;durP2;ratioP2;P2;SDS_P1;SDS_P2;PMS_P1;PMS_P2;Temp;Humidity;BMP_temperature;BMP_pressure;BME280_temperature;BME280_humidity;BME280_pressure;Samples;Min_cycle;Max_cycle;Signal;HPM_P1;HPM_P2
2023/05/02 00:00:41;;;;;;;5.40;4.27;;;;;;;13.86;nan;99661.06;4987360;28;20278;-83
2023/05/02 00:03:07;;;;;;;5.72;5.22;;;;;;;13.86;nan;99668.97;4987819;28;20578;-83
2023/05/02 00:05:33;;;;;;;7.23;6.20;;;;;;;13.87;nan;99668.84;4985375;28;20542;-83
2023/05/02 00:07:58;;;;;;;8.25;5.60;;;;;;;13.89;nan;99666.94;4984392;28;20977;-82
2023/05/02 00:10:24;;;;;;;5.33;4.83;;;;;;;13.92;nan;99666.69;4986445;28;20856;-82
2023/05/02 00:12:49;;;;;;;5.60;4.90;;;;;;;13.92;nan;99666.69;4984388;28;20700;-84
2023/05/02 00:15:15;;;;;;;8.07;4.97;;;;;;;13.91;nan;99665.03;4986337;28;20215;-84
2023/05/02 00:17:41;;;;;;;7.50;5.23;;;;;;;13.93;nan;99678.09;4987571;28;20767;-83
2023/05/02 00:20:08;;;;;;;5.83;5.33;;;;;;;13.92;nan;99669.34;4986576;28;20231;-83
2023/05/02 00:22:34;;;;;;;5.80;5.20;;;;;;;13.88;nan;99675.81;4985625;28;20474;-84
2023/05/02 00:25:00;;;;;;;5.83;5.23;;;;;;;13.83;nan;99671.84;4986000;28;20273;-84
2023/05/02 00:27:25;;;;;;;6.20;4.83;;;;;;;13.79;nan;99673.03;4985728;28;20524;-82
2023/05/02 00:29:51;;;;;;;6.63;5.77;;;;;;;13.71;nan;99671.81;4986128;28;20301;-84
2023/05/02 00:32:17;;;;;;;5.27;4.80;;;;;;;13.67;nan;99685.38;4985962;28;20215;-84
2023/05/02 00:34:43;;;;;;;5.63;5.10;;;;;;;13.65;nan;99680.19;4986617;28;20577;-84
2023/05/02 00:37:08;;;;;;;7.57;5.63;;;;;;;13.66;nan;99684.53;4985336;28;20239;-83
2023/05/02 00:39:34;;;;;;;6.80;5.97;;;;;;;13.69;nan;99686.06;4984416;28;20226;-84
2023/05/02 00:42:00;;;;;;;6.15;5.65;;;;;;;13.69;nan;99681.66;4985934;28;20299;-83
2023/05/02 00:44:27;;;;;;;8.93;5.43;;;;;;;13.70;nan;99678.06;4987866;28;20219;-84
2023/05/02 00:46:53;;;;;;;5.57;5.07;;;;;;;13.66;nan;99681.03;4987007;28;20223;-84
2023/05/02 00:49:19;;;;;;;6.43;5.65;;;;;;;13.66;nan;99681.91;4985237;28;20785;-83
2023/05/02 00:51:45;;;;;;;5.27;4.77;;;;;;;13.67;nan;99678.28;4985997;28;20218;-83
2023/05/02 00:54:12;;;;;;;5.40;5.00;;;;;;;13.70;nan;99678.06;4987780;28;20472;-83
2023/05/02 00:56:37;;;;;;;5.97;5.05;;;;;;;13.71;nan;99685.00;4985178;28;20508;-83
2023/05/02 00:59:04;;;;;;;6.03;4.67;;;;;;;13.72;nan;99684.06;4983811;28;20298;-84
2023/05/02 01:01:49;;;;;;;9.45;5.93;;;;;;;13.66;nan;99686.31;4986888;28;20292;-84
2023/05/02 01:04:39;;;;;;;7.10;5.38;;;;;;;13.56;nan;99683.53;4987187;28;20246;-83
2023/05/02 01:07:12;;;;;;;5.95;5.43;;;;;;;13.52;nan;99686.50;5004261;28;20550;-83
2023/05/02 01:10:05;;;;;;;5.13;4.65;;;;;;;13.50;nan;99692.75;4986424;28;20700;-83
2023/05/02 01:12:41;;;;;;;5.70;5.03;;;;;;;13.45;nan;99691.41;4983865;28;20486;-83
2023/05/02 01:15:11;;;;;;;6.82;5.97;;;;;;;13.42;nan;99686.34;4986299;28;20261;-83
2023/05/02 01:17:38;;;;;;;6.63;5.93;;;;;;;13.41;nan;99693.41;4984633;28;20227;-82
2023/05/02 01:20:18;;;;;;;5.75;4.85;;;;;;;13.41;nan;99692.59;4982826;28;20254;-83
2023/05/02 01:22:45;;;;;;;5.50;5.00;;;;;;;13.41;nan;99693.41;4985941;28;20491;-83
2023/05/02 01:25:20;;;;;;;5.45;4.78;;;;;;;13.41;nan;99703.13;4983983;28;20634;-84
2023/05/02 01:30:26;;;;;;;7.65;5.55;;;;;;;13.45;nan;99700.16;4949011;28;20775;-78
2023/05/02 01:32:56;;;;;;;7.10;5.60;;;;;;;13.45;nan;99694.88;4956985;28;20770;-79
2023/05/02 01:35:23;;;;;;;5.35;4.75;;;;;;;13.43;nan;99701.22;4957303;28;20786;-80
2023/05/02 01:37:50;;;;;;;9.02;5.70;;;;;;;13.40;nan;99702.28;4971140;28;20589;-79
2023/05/02 01:40:19;;;;;;;9.25;5.80;;;;;;;13.40;nan;99701.47;4965403;28;20271;-81
2023/05/02 01:42:48;;;;;;;6.45;5.85;;;;;;;13.40;nan;99704.94;4965278;28;22534;-78
2023/05/02 01:45:15;;;;;;;6.35;5.38;;;;;;;13.42;nan;99705.66;4965018;28;20230;-81
2023/05/02 01:47:43;;;;;;;6.70;5.75;;;;;;;13.46;nan;99708.91;4954914;28;20224;-79
2023/05/02 01:50:11;;;;;;;5.40;4.90;;;;;;;13.51;nan;99701.50;4963826;28;20314;-81
2023/05/02 01:52:38;;;;;;;5.20;4.70;;;;;;;13.55;nan;99699.47;4965392;28;20273;-82
2023/05/02 01:55:06;;;;;;;5.35;4.78;;;;;;;13.55;nan;99715.31;4958942;28;20755;-80
2023/05/02 01:57:32;;;;;;;11.73;5.90;;;;;;;13.56;nan;99707.28;4967413;28;20557;-80
2023/05/02 01:59:58;;;;;;;5.23;4.53;;;;;;;13.57;nan;99703.69;4951080;28;20598;-82
2023/05/02 02:02:26;;;;;;;7.00;5.55;;;;;;;13.59;nan;99708.84;4968951;28;20199;-78
2023/05/02 02:04:55;;;;;;;7.10;5.97;;;;;;;13.60;nan;99703.44;4966496;28;20485;-81
2023/05/02 02:07:20;;;;;;;8.32;7.05;;;;;;;13.59;nan;99709.69;4958073;28;20213;-81
2023/05/02 02:09:46;;;;;;;6.10;5.50;;;;;;;13.55;nan;99699.47;4965835;28;20255;-80
2023/05/02 02:12:26;;;;;;;10.05;5.13;;;;;;;13.49;nan;99709.53;4967822;28;20227;-80
2023/05/02 02:15:18;;;;;;;7.00;5.30;;;;;;;13.45;nan;99710.72;4967011;28;20223;-81
2023/05/02 02:18:07;;;;;;;5.75;5.05;;;;;;;13.40;nan;99702.28;4948163;28;20208;-81
2023/05/02 02:20:34;;;;;;;7.63;5.25;;;;;;;13.35;nan;99712.34;4952983;28;20322;-81
2023/05/02 02:23:07;;;;;;;5.97;5.35;;;;;;;13.31;nan;99713.50;4965826;28;20250;-80
2023/05/02 02:25:33;;;;;;;5.70;4.43;;;;;;;13.30;nan;99719.75;4967521;28;20220;-82
2023/05/02 02:28:00;;;;;;;5.32;4.80;;;;;;;13.31;nan;99717.94;4949498;28;20704;-80
2023/05/02 02:30:26;;;;;;;5.00;4.50;;;;;;;13.32;nan;99719.66;4949135;28;20731;-81
2023/05/02 02:32:52;;;;;;;5.57;5.07;;;;;;;13.28;nan;99719.88;4967493;28;20306;-79
2023/05/02 02:35:18;;;;;;;6.67;5.83;;;;;;;13.25;nan;99719.22;4963789;28;20513;-80
2023/05/02 02:38:01;;;;;;;5.75;5.25;;;;;;;13.23;nan;99729.03;4948487;28;20226;-81
2023/05/02 02:40:26;;;;;;;5.70;5.20;;;;;;;13.17;nan;99729.47;4966207;28;20375;-82
2023/05/02 02:43:07;;;;;;;5.47;4.87;;;;;;;13.09;nan;99727.38;4963648;28;20779;-81
2023/05/02 02:45:40;;;;;;;6.15;5.32;;;;;;;13.06;nan;99730.25;4958379;28;20229;-81
2023/05/02 02:48:19;;;;;;;6.78;5.68;;;;;;;13.04;nan;99738.28;4967296;28;20227;-81
2023/05/02 02:51:11;;;;;;;5.10;4.65;;;;;;;12.99;nan;99743.03;4958236;28;20232;-82
2023/05/02 02:54:10;;;;;;;5.65;5.25;;;;;;;12.98;nan;99736.06;4948542;28;20235;-80
2023/05/02 02:56:44;;;;;;;5.07;4.55;;;;;;;12.96;nan;99735.34;4964517;28;20227;-78
2023/05/02 02:59:27;;;;;;;5.47;4.97;;;;;;;12.95;nan;99743.38;4966964;28;20235;-80
2023/05/02 03:02:04;;;;;;;6.70;5.90;;;;;;;12.93;nan;99745.25;4966237;28;20224;-81
2023/05/02 03:04:31;;;;;;;5.20;4.80;;;;;;;12.91;nan;99750.66;4949398;28;20512;-82
2023/05/02 03:06:57;;;;;;;6.90;5.90;;;;;;;12.86;nan;99747.50;4970570;28;20211;-81
2023/05/02 03:09:22;;;;;;;6.10;5.10;;;;;;;12.83;nan;99742.47;4952696;28;20223;-81
2023/05/02 03:11:49;;;;;;;7.30;6.10;;;;;;;12.79;nan;99754.16;4953397;28;20637;-79
2023/05/02 03:14:15;;;;;;;7.32;5.30;;;;;;;12.75;nan;99757.97;4952387;28;20258;-79
2023/05/02 03:16:41;;;;;;;7.20;5.73;;;;;;;12.72;nan;99753.75;4971726;28;20227;-78
2023/05/02 03:19:11;;;;;;;6.18;4.78;;;;;;;12.68;nan;99757.53;4970944;28;20235;-81
2023/05/02 03:21:37;;;;;;;6.53;4.13;;;;;;;12.63;nan;99760.50;4953293;28;20227;-81
2023/05/02 03:24:10;;;;;;;6.90;5.10;;;;;;;12.56;nan;99769.78;4954837;28;20216;-78
2023/05/02 03:26:35;;;;;;;6.57;5.10;;;;;;;12.52;nan;99770.09;4954333;28;20632;-78
2023/05/02 03:29:01;;;;;;;4.40;4.00;;;;;;;12.46;nan;99770.53;4972132;28;20486;-80
2023/05/02 03:31:32;;;;;;;6.40;5.18;;;;;;;12.42;nan;99776.94;4988136;28;20733;-82
2023/05/02 03:33:58;;;;;;;5.67;5.10;;;;;;;12.34;nan;99783.59;4989257;28;20285;-82
2023/05/02 03:36:23;;;;;;;6.30;5.67;;;;;;;12.31;nan;99785.56;4987345;28;20559;-82
2023/05/02 03:38:52;;;;;;;5.20;4.70;;;;;;;12.27;nan;99792.84;4994588;28;20219;-77
2023/05/02 03:41:19;;;;;;;4.90;4.60;;;;;;;12.27;nan;99792.00;4986714;28;20245;-80
2023/05/02 03:43:48;;;;;;;6.75;5.60;;;;;;;12.24;nan;99800.13;4986294;28;20540;-81
2023/05/02 03:46:14;;;;;;;5.53;4.90;;;;;;;12.18;nan;99804.84;4990724;28;20256;-80
2023/05/02 03:48:45;;;;;;;10.10;5.75;;;;;;;12.08;nan;99814.31;4991251;28;20239;-81
2023/05/02 03:51:10;;;;;;;4.63;4.20;;;;;;;12.05;nan;99808.41;4985972;28;20819;-80
2023/05/02 03:53:41;;;;;;;5.13;4.13;;;;;;;12.01;nan;99810.38;4994536;28;20630;-80
2023/05/02 03:56:07;;;;;;;8.83;5.30;;;;;;;12.00;nan;99821.03;4989388;28;20227;-78
2023/05/02 03:58:42;;;;;;;7.53;5.00;;;;;;;11.98;nan;99821.13;4988381;28;20230;-78
2023/05/02 04:01:13;;;;;;;6.00;5.47;;;;;;;11.98;nan;99818.50;4996779;28;20222;-80
2023/05/02 04:03:39;;;;;;;6.78;5.72;;;;;;;11.99;nan;99828.09;4991323;28;20253;-82
2023/05/02 04:06:07;;;;;;;6.90;6.20;;;;;;;12.06;nan;99824.09;4997530;28;20532;-80
2023/05/02 04:08:32;;;;;;;8.33;5.17;;;;;;;12.10;nan;99825.59;4996104;28;20314;-79
2023/05/02 04:10:59;;;;;;;5.32;4.82;;;;;;;12.14;nan;99826.22;4997482;28;20488;-78
2023/05/02 04:13:24;;;;;;;6.97;5.63;;;;;;;12.17;nan;99828.66;4994143;28;20226;-79
2023/05/02 04:15:50;;;;;;;6.27;5.67;;;;;;;12.20;nan;99832.88;4994802;28;20214;-81
2023/05/02 04:18:19;;;;;;;6.20;5.60;;;;;;;12.23;nan;99830.03;4993360;28;20230;-79
2023/05/02 04:20:45;;;;;;;6.23;5.63;;;;;;;12.27;nan;99831.53;4996466;28;20223;-79
2023/05/02 04:23:13;;;;;;;5.85;5.10;;;;;;;12.30;nan;99841.84;4990488;28;20706;-82
2023/05/02 04:25:39;;;;;;;6.88;6.10;;;;;;;12.31;nan;99836.50;4996129;28;20259;-81
2023/05/02 04:28:05;;;;;;;6.10;5.37;;;;;;;12.31;nan;99838.25;4990562;28;20270;-78
2023/05/02 04:30:30;;;;;;;7.13;5.90;;;;;;;12.28;nan;99834.03;4960691;28;20732;-77
2023/05/02 04:33:02;;;;;;;6.10;5.50;;;;;;;12.26;nan;99840.34;4960448;28;20216;-80
2023/05/02 04:35:31;;;;;;;6.45;5.68;;;;;;;12.28;nan;99834.03;4945476;28;20492;-79
2023/05/02 04:37:57;;;;;;;7.00;5.30;;;;;;;12.27;nan;99828.88;4954878;28;20250;-80
2023/05/02 04:40:23;;;;;;;5.97;5.43;;;;;;;12.25;nan;99836.88;4955869;28;21295;-77
2023/05/02 04:42:53;;;;;;;6.10;5.35;;;;;;;12.27;nan;99837.63;4954543;28;20254;-81
2023/05/02 04:45:22;;;;;;;6.07;5.47;;;;;;;12.33;nan;99844.28;4955439;28;20672;-79
2023/05/02 04:47:48;;;;;;;6.35;5.53;;;;;;;12.42;nan;99850.69;4953993;28;20211;-79
2023/05/02 04:50:13;;;;;;;12.10;6.70;;;;;;;12.47;nan;99833.63;4970647;28;20234;-81
2023/05/02 04:52:39;;;;;;;6.03;5.43;;;;;;;12.49;nan;99844.09;4956046;28;21010;-81
2023/05/02 04:55:05;;;;;;;5.73;5.13;;;;;;;12.50;nan;99851.91;4970932;28;20714;-78
2023/05/02 04:57:30;;;;;;;6.75;5.53;;;;;;;12.57;nan;99852.31;4954978;28;20561;-81
2023/05/02 04:59:58;;;;;;;7.78;5.70;;;;;;;12.80;nan;99848.94;4953481;28;20226;-81
2023/05/02 05:02:25;;;;;;;7.22;4.65;;;;;;;13.15;nan;99847.41;4953439;28;20802;-82
2023/05/02 05:04:51;;;;;;;8.68;6.05;;;;;;;13.54;nan;99858.78;4954028;28;20489;-81
2023/05/02 05:07:18;;;;;;;7.13;5.43;;;;;;;13.83;nan;99857.50;4954272;28;20220;-78
2023/05/02 05:09:45;;;;;;;6.65;5.90;;;;;;;14.15;nan;99867.50;4952312;28;20231;-79
2023/05/02 05:12:10;;;;;;;8.57;4.97;;;;;;;14.41;nan;99873.47;4952814;28;20754;-80
2023/05/02 05:14:36;;;;;;;5.45;5.05;;;;;;;14.66;nan;99880.41;4948209;28;20215;-81
2023/05/02 05:17:02;;;;;;;4.93;4.53;;;;;;;14.98;nan;99871.78;4952271;28;20281;-79
2023/05/02 05:19:28;;;;;;;5.77;5.17;;;;;;;15.31;nan;99883.34;4953304;28;20255;-82
2023/05/02 05:21:54;;;;;;;5.28;4.75;;;;;;;15.56;nan;99884.91;4955003;28;20342;-82
2023/05/02 05:24:20;;;;;;;7.13;4.83;;;;;;;15.69;nan;99886.47;4953231;28;20322;-81
2023/05/02 05:26:46;;;;;;;4.68;4.25;;;;;;;15.82;nan;99888.94;4953875;28;21157;-81
2023/05/02 05:29:12;;;;;;;4.70;4.13;;;;;;;15.90;nan;99896.28;4977489;28;20239;-80
2023/05/02 05:31:40;;;;;;;6.22;4.75;;;;;;;15.98;nan;99903.59;4998132;28;20212;-79
2023/05/02 05:34:06;;;;;;;5.60;5.10;;;;;;;16.08;nan;99910.69;4990691;28;20223;-80
2023/05/02 05:36:32;;;;;;;6.57;5.60;;;;;;;16.34;nan;99910.38;5007030;28;20222;-81
2023/05/02 05:38:58;;;;;;;5.30;4.90;;;;;;;16.57;nan;99914.56;4989620;28;20826;-82
2023/05/02 05:41:23;;;;;;;7.40;5.20;;;;;;;16.79;nan;99912.78;4990880;28;20687;-80
2023/05/02 05:43:55;;;;;;;5.88;5.30;;;;;;;16.76;nan;99921.81;4989456;28;20214;-78
2023/05/02 05:46:22;;;;;;;6.20;4.80;;;;;;;16.81;nan;99922.31;4992018;28;20223;-78
2023/05/02 05:48:47;;;;;;;7.40;5.50;;;;;;;16.85;nan;99925.56;4992128;28;20226;-78
2023/05/02 05:51:13;;;;;;;6.83;5.27;;;;;;;16.99;nan;99930.53;4991394;28;20464;-82
2023/05/02 05:53:38;;;;;;;5.70;5.20;;;;;;;17.10;nan;99928.78;4991590;28;20223;-81
2023/05/02 05:56:10;;;;;;;6.18;4.75;;;;;;;17.21;nan;99926.88;4990267;28;20307;-80
2023/05/02 05:58:38;;;;;;;5.50;5.10;;;;;;;17.13;nan;99923.19;4990883;28;20621;-82
2023/05/02 06:01:05;;;;;;;6.13;5.13;;;;;;;16.84;nan;99930.97;4991147;28;20559;-78
2023/05/02 06:03:31;;;;;;;5.82;5.20;;;;;;;16.51;nan;99927.50;4991197;28;20229;-82
2023/05/02 06:05:57;;;;;;;7.90;6.05;;;;;;;16.20;nan;99934.50;5000812;28;20432;-79
2023/05/02 06:08:22;;;;;;;6.70;4.90;;;;;;;16.05;nan;99926.84;5003419;28;20374;-79
2023/05/02 06:10:47;;;;;;;7.53;5.57;;;;;;;16.06;nan;99935.63;5003209;28;20260;-81
2023/05/02 06:13:13;;;;;;;5.97;5.30;;;;;;;16.22;nan;99922.81;4989006;28;20215;-79
2023/05/02 06:15:40;;;;;;;6.40;4.57;;;;;;;16.47;nan;99929.59;5006325;28;20223;-82
2023/05/02 06:18:06;;;;;;;6.20;5.60;;;;;;;16.67;nan;99935.03;4987156;28;20590;-82
2023/05/02 06:20:32;;;;;;;5.77;4.90;;;;;;;16.95;nan;99939.69;4987208;28;20224;-80
2023/05/02 06:22:58;;;;;;;5.43;4.90;;;;;;;17.26;nan;99934.44;4994985;28;20374;-79
2023/05/02 06:25:23;;;;;;;4.97;4.43;;;;;;;17.62;nan;99934.88;4985850;28;21066;-80
2023/05/02 06:27:48;;;;;;;4.80;4.00;;;;;;;17.90;nan;99939.47;4986309;28;20321;-79
2023/05/02 06:30:14;;;;;;;7.23;4.90;;;;;;;18.04;nan;99942.72;4970284;28;20233;-80
2023/05/02 06:32:41;;;;;;;5.60;4.97;;;;;;;18.04;nan;99948.03;4968023;28;20199;-81
2023/05/02 06:35:06;;;;;;;6.47;5.28;;;;;;;17.98;nan;99951.22;4966250;28;20444;-82
2023/05/02 06:37:35;;;;;;;6.00;5.50;;;;;;;17.74;nan;99946.22;4967655;28;20284;-82
2023/05/02 06:40:01;;;;;;;6.88;5.53;;;;;;;17.73;nan;99944.53;4967816;28;20224;-82
2023/05/02 06:42:26;;;;;;;7.32;5.45;;;;;;;17.88;nan;99949.38;4966013;28;20233;-79
2023/05/02 06:44:52;;;;;;;5.90;5.40;;;;;;;18.14;nan;99960.31;4967512;28;20255;-79
2023/05/02 06:47:17;;;;;;;5.30;4.80;;;;;;;18.43;nan;99962.19;4970057;28;20228;-79
2023/05/02 06:49:43;;;;;;;5.80;5.30;;;;;;;18.78;nan;99960.81;4969986;28;20257;-81
2023/05/02 06:52:08;;;;;;;4.97;4.57;;;;;;;19.17;nan;99961.59;4967153;28;20236;-82
2023/05/02 06:54:33;;;;;;;6.03;5.43;;;;;;;19.47;nan;99957.00;4968905;28;20213;-83
2023/05/02 06:56:59;;;;;;;5.93;5.43;;;;;;;19.72;nan;99955.50;4967916;28;20312;-82
2023/05/02 06:59:25;;;;;;;6.40;4.82;;;;;;;19.80;nan;99958.28;4968782;28;20266;-81
2023/05/02 07:01:50;;;;;;;6.40;5.57;;;;;;;19.88;nan;99960.22;4966400;28;20254;-83
2023/05/02 07:04:15;;;;;;;6.77;6.17;;;;;;;19.92;nan;99958.91;4968176;28;20698;-80
2023/05/02 07:06:41;;;;;;;8.00;6.17;;;;;;;19.91;nan;99956.41;4968218;28;20603;-82
2023/05/02 07:09:06;;;;;;;10.50;6.73;;;;;;;20.02;nan;99959.69;4968700;28;20263;-82
2023/05/02 07:11:31;;;;;;;10.20;7.83;;;;;;;20.28;nan;99957.13;4967425;28;20292;-83
2023/05/02 07:13:57;;;;;;;12.83;8.43;;;;;;;20.44;nan;99951.13;4966287;28;20236;-82
2023/05/02 07:16:22;;;;;;;9.70;8.70;;;;;;;20.67;nan;99961.34;4968238;28;20248;-79
2023/05/02 07:18:48;;;;;;;13.00;9.97;;;;;;;20.81;nan;99955.44;4967124;28;20698;-80
2023/05/02 07:21:13;;;;;;;12.00;9.90;;;;;;;20.85;nan;99959.50;4965137;28;20231;-82
2023/05/02 07:23:38;;;;;;;11.60;10.53;;;;;;;20.87;nan;99965.50;4966693;28;20231;-83
2023/05/02 07:26:04;;;;;;;10.03;9.03;;;;;;;20.96;nan;99955.75;4965838;28;20210;-82
2023/05/02 07:28:30;;;;;;;13.87;11.73;;;;;;;20.86;nan;99965.69;5002887;23;20444;-86
2023/05/02 07:30:55;;;;;;;16.30;12.93;;;;;;;20.62;nan;99963.66;4942255;28;20246;-86
2023/05/02 07:33:21;;;;;;;11.17;9.70;;;;;;;20.30;nan;99975.66;4949562;28;20668;-87
2023/05/02 07:35:46;;;;;;;13.30;11.77;;;;;;;20.22;nan;99970.22;4962371;28;20463;-86
2023/05/02 07:38:11;;;;;;;12.00;10.50;;;;;;;20.31;nan;99962.16;4945136;28;20221;-86
2023/05/02 07:40:37;;;;;;;13.90;12.03;;;;;;;20.28;nan;99972.28;4963853;28;20674;-86
2023/05/02 07:43:02;;;;;;;13.03;11.73;;;;;;;19.89;nan;99969.88;4962440;28;20220;-86
2023/05/02 07:45:28;;;;;;;13.77;12.30;;;;;;;19.52;nan;99975.19;4961486;28;20214;-86
2023/05/02 07:47:53;;;;;;;16.17;12.90;;;;;;;19.18;nan;99973.91;4963321;28;20211;-86
2023/05/02 07:50:18;;;;;;;14.10;11.57;;;;;;;19.07;nan;99978.56;4962934;28;20370;-86
2023/05/02 07:52:44;;;;;;;17.53;14.37;;;;;;;19.16;nan;99983.03;4965276;28;20212;-87
2023/05/02 07:55:09;;;;;;;14.00;12.50;;;;;;;19.10;nan;99986.28;4966161;28;20591;-86
2023/05/02 07:57:35;;;;;;;16.10;14.40;;;;;;;18.68;nan;99987.38;4966780;28;20559;-86
2023/05/02 08:00:00;;;;;;;16.70;13.40;;;;;;;18.48;nan;99991.03;4966645;28;20735;-86
2023/05/02 08:02:26;;;;;;;15.40;12.50;;;;;;;18.37;nan;99992.00;4958339;28;20346;-86
2023/05/02 08:04:51;;;;;;;18.90;14.93;;;;;;;18.15;nan;99990.44;4941696;28;20942;-87
2023/05/02 08:07:17;;;;;;;20.57;13.60;;;;;;;18.35;nan;99986.81;4942665;28;20247;-87
2023/05/02 08:09:42;;;;;;;14.53;13.03;;;;;;;18.33;nan;99993.25;4943005;28;20689;-86
2023/05/02 08:12:07;;;;;;;18.23;13.97;;;;;;;18.46;nan;99982.34;4942425;28;20339;-86
2023/05/02 08:14:33;;;;;;;13.40;11.67;;;;;;;18.71;nan;99987.13;4942737;28;20772;-86
2023/05/02 08:16:59;;;;;;;16.40;14.10;;;;;;;19.00;nan;99991.59;4945413;28;20649;-87
2023/05/02 08:19:25;;;;;;;15.30;13.80;;;;;;;19.39;nan;99980.88;4943067;28;20264;-86
2023/05/02 08:21:52;;;;;;;14.03;11.93;;;;;;;19.90;nan;99984.88;4944523;28;20243;-86
2023/05/02 08:24:18;;;;;;;15.30;13.63;;;;;;;20.34;nan;99983.19;4945396;28;20478;-86
2023/05/02 08:26:43;;;;;;;12.83;11.00;;;;;;;20.60;nan;99984.31;4927623;28;20790;-86
2023/05/02 08:29:10;;;;;;;13.80;12.07;;;;;;;20.92;nan;99984.56;4951261;28;20235;-87
2023/05/02 08:31:36;;;;;;;12.73;10.27;;;;;;;21.08;nan;99978.50;4961984;28;20253;-86
2023/05/02 08:34:01;;;;;;;13.90;11.00;;;;;;;21.07;nan;99981.38;4962000;28;20460;-87
2023/05/02 08:36:27;;;;;;;13.33;11.27;;;;;;;21.00;nan;99983.81;4962393;28;20482;-86
2023/05/02 08:38:53;;;;;;;13.83;11.23;;;;;;;20.67;nan;99988.88;4963302;28;20318;-86
2023/05/02 08:41:19;;;;;;;12.00;10.80;;;;;;;20.35;nan;99989.38;4961960;28;20710;-86
2023/05/02 08:43:47;;;;;;;13.30;11.90;;;;;;;20.07;nan;99984.09;4963692;28;20211;-86
2023/05/02 08:46:15;;;;;;;14.10;11.30;;;;;;;20.07;nan;99988.59;4963012;28;20475;-86
2023/05/02 08:48:43;;;;;;;13.97;10.27;;;;;;;20.16;nan;99992.19;4964906;28;20485;-87
2023/05/02 08:51:11;;;;;;;17.27;10.93;;;;;;;20.34;nan;99988.53;4965278;28;20575;-86
2023/05/02 08:53:37;;;;;;;13.77;11.63;;;;;;;20.52;nan;99985.91;4965319;28;21083;-87
2023/05/02 08:56:05;;;;;;;13.93;10.70;;;;;;;20.50;nan;99995.88;4966160;28;20969;-86
2023/05/02 08:58:30;;;;;;;11.63;10.27;;;;;;;20.28;nan;99996.28;4966076;28;20564;-87
2023/05/02 09:01:00;;;;;;;13.00;11.70;;;;;;;19.92;nan;99996.22;4966214;28;20562;-86
2023/05/02 09:03:36;;;;;;;12.90;10.50;;;;;;;19.64;nan;100004.19;4968498;28;20225;-87
2023/05/02 09:06:35;;;;;;;13.93;12.30;;;;;;;19.55;nan;100002.41;4969446;28;20460;-86
2023/05/02 09:09:00;;;;;;;12.70;10.73;;;;;;;19.55;nan;100006.88;4966119;28;20229;-86
2023/05/02 09:11:26;;;;;;;14.73;11.63;;;;;;;19.57;nan;100011.06;4968510;28;20459;-87
2023/05/02 09:13:51;;;;;;;9.90;8.90;;;;;;;19.59;nan;100009.09;4968863;28;20240;-87
2023/05/02 09:16:22;;;;;;;10.47;8.73;;;;;;;19.63;nan;100009.66;4971069;28;20374;-87
2023/05/02 09:18:49;;;;;;;11.40;10.30;;;;;;;19.53;nan;100008.88;4970001;28;20599;-87
2023/05/02 09:21:20;;;;;;;12.00;10.90;;;;;;;19.43;nan;100011.56;4971980;28;20465;-87
2023/05/02 09:23:50;;;;;;;11.10;9.90;;;;;;;19.42;nan;100015.22;4973426;28;20465;-87
2023/05/02 09:26:30;;;;;;;13.00;10.20;;;;;;;19.41;nan;100016.19;4971906;28;20465;-87
2023/05/02 09:28:56;;;;;;;11.93;9.03;;;;;;;19.49;nan;100013.63;4972874;28;20997;-86
2023/05/02 09:31:27;;;;;;;11.70;10.53;;;;;;;19.46;nan;100013.91;4972407;28;20552;-87
2023/05/02 09:33:53;;;;;;;13.77;10.27;;;;;;;19.40;nan;100012.69;4971308;28;20570;-87
2023/05/02 09:36:20;;;;;;;12.67;11.37;;;;;;;19.50;nan;100025.16;4974381;28;20453;-87
2023/05/02 09:38:48;;;;;;;12.40;11.13;;;;;;;19.54;nan;100013.19;4974724;28;20474;-87
2023/05/02 09:41:13;;;;;;;10.47;9.50;;;;;;;19.62;nan;100005.31;4976857;28;20472;-86
2023/05/02 09:43:40;;;;;;;10.43;9.27;;;;;;;19.84;nan;100004.13;4973734;28;20496;-86
2023/05/02 09:46:08;;;;;;;11.07;9.40;;;;;;;20.06;nan;99997.56;4975477;28;20829;-87
2023/05/02 09:48:54;;;;;;;10.30;9.30;;;;;;;20.29;nan;100003.31;4977491;28;20474;-87
2023/05/02 09:51:21;;;;;;;11.97;9.10;;;;;;;20.30;nan;99999.66;4977311;28;20462;-87
2023/05/02 09:53:47;;;;;;;9.30;7.90;;;;;;;20.35;nan;100002.72;4977825;28;21523;-87
2023/05/02 09:56:14;;;;;;;11.93;8.83;;;;;;;20.55;nan;99990.13;4978151;28;20984;-86
2023/05/02 09:58:39;;;;;;;12.13;9.80;;;;;;;20.77;nan;99994.16;4979194;28;20473;-87
2023/05/02 10:01:04;;;;;;;10.50;9.50;;;;;;;20.72;nan;99996.44;4973913;28;20479;-87
2023/05/02 10:03:31;;;;;;;11.83;9.70;;;;;;;20.74;nan;100000.63;4969745;28;20219;-87
2023/05/02 10:05:57;;;;;;;12.50;11.20;;;;;;;20.72;nan;99999.09;4969811;28;20442;-87
2023/05/02 10:08:27;;;;;;;14.30;11.27;;;;;;;20.60;nan;100005.66;4971456;28;20228;-86
2023/05/02 10:10:57;;;;;;;14.73;11.17;;;;;;;20.58;nan;100008.50;4972304;28;20478;-87
2023/05/02 10:13:26;;;;;;;11.40;10.03;;;;;;;20.73;nan;100003.44;4971170;28;20473;-87
2023/05/02 10:16:03;;;;;;;14.23;11.20;;;;;;;20.95;nan;100002.13;4974392;28;21021;-87
2023/05/02 10:19:02;;;;;;;13.83;10.37;;;;;;;20.95;nan;99999.44;4972571;28;20468;-87
2023/05/02 10:21:28;;;;;;;13.37;11.17;;;;;;;21.02;nan;100007.69;4972970;28;20456;-87
2023/05/02 10:23:55;;;;;;;13.50;11.70;;;;;;;21.12;nan;100008.44;4973980;28;20460;-87
2023/05/02 10:26:22;;;;;;;13.30;11.90;;;;;;;21.12;nan;100003.09;4974117;28;20512;-87
2023/05/02 10:28:48;;;;;;;13.93;10.67;;;;;;;20.96;nan;100004.66;4973114;28;20670;-87
2023/05/02 10:31:14;;;;;;;15.03;11.60;;;;;;;20.77;nan;99999.50;4973863;28;20471;-87
2023/05/02 10:33:40;;;;;;;12.17;10.93;;;;;;;20.61;nan;99996.66;4974203;28;20518;-87
2023/05/02 10:36:11;;;;;;;11.17;10.10;;;;;;;20.46;nan;99999.81;4974743;28;20460;-87
2023/05/02 10:38:38;;;;;;;15.37;11.80;;;;;;;20.39;nan;99997.91;4976522;28;20479;-87
2023/05/02 10:41:15;;;;;;;12.80;10.40;;;;;;;20.35;nan;99989.38;4978380;28;20461;-86
2023/05/02 10:43:44;;;;;;;13.57;10.90;;;;;;;20.31;nan;99993.34;4976782;28;20597;-86
2023/05/02 10:46:41;;;;;;;14.20;11.60;;;;;;;20.23;nan;99985.25;4978048;28;21444;-86
2023/05/02 10:49:12;;;;;;;12.67;10.87;;;;;;;20.11;nan;99985.44;4980471;28;20571;-86
2023/05/02 10:51:40;;;;;;;13.83;12.43;;;;;;;19.98;nan;99977.00;4980981;28;20467;-87
2023/05/02 10:54:14;;;;;;;12.23;11.03;;;;;;;19.84;nan;99985.47;4984827;28;20573;-87
2023/05/02 10:57:08;;;;;;;11.47;10.33;;;;;;;19.77;nan;99981.75;4976401;28;21042;-87
2023/05/02 10:59:40;;;;;;;12.77;10.70;;;;;;;19.86;nan;99979.00;4976454;28;20474;-86
2023/05/02 11:02:24;;;;;;;13.40;9.70;;;;;;;19.99;nan;99978.66;4977902;28;20463;-87
2023/05/02 11:05:00;;;;;;;11.83;10.17;;;;;;;20.19;nan;99984.69;4977993;28;20489;-87
2023/05/02 11:07:26;;;;;;;11.73;10.07;;;;;;;20.31;nan;99977.34;4977846;28;20806;-87
2023/05/02 11:09:51;;;;;;;12.60;9.70;;;;;;;20.39;nan;99969.41;4974020;28;20484;-87
2023/05/02 11:12:46;;;;;;;11.03;9.80;;;;;;;20.69;nan;99964.72;4977495;28;20892;-87
2023/05/02 11:15:12;;;;;;;9.80;8.80;;;;;;;20.77;nan;99970.94;4978797;28;20227;-87
2023/05/02 11:18:12;;;;;;;12.03;10.90;;;;;;;20.76;nan;99971.09;4976753;28;20801;-86
2023/05/02 11:20:39;;;;;;;11.37;10.10;;;;;;;20.86;nan;99971.00;4979823;28;20478;-86
2023/05/02 11:23:14;;;;;;;10.70;9.70;;;;;;;20.90;nan;99970.56;4979308;28;20495;-87
2023/05/02 11:25:47;;;;;;;11.23;9.60;;;;;;;20.90;nan;99965.22;4961961;28;20463;-87
2023/05/02 11:28:48;;;;;;;8.00;7.17;;;;;;;20.67;nan;99972.03;4979658;28;20938;-87
2023/05/02 11:31:38;;;;;;;10.60;8.90;;;;;;;20.49;nan;99970.16;4979063;28;20480;-87
2023/05/02 11:34:03;;;;;;;10.73;9.63;;;;;;;20.30;nan;99970.31;4968227;28;20490;-87
2023/05/02 11:36:33;;;;;;;12.40;10.00;;;;;;;20.34;nan;99969.03;4979855;28;20717;-87
2023/05/02 11:39:04;;;;;;;10.57;9.30;;;;;;;20.44;nan;99964.47;4979853;28;20228;-87
2023/05/02 11:41:42;;;;;;;11.33;10.13;;;;;;;20.52;nan;99964.53;4978912;28;20841;-86
2023/05/02 11:44:08;;;;;;;10.37;9.03;;;;;;;20.55;nan;99960.75;4974579;28;20881;-86
2023/05/02 11:46:40;;;;;;;11.40;9.27;;;;;;;20.50;nan;99966.50;4975460;28;21059;-86
2023/05/02 11:49:06;;;;;;;11.40;10.27;;;;;;;20.38;nan;99959.72;4978247;28;20206;-86
2023/05/02 11:51:32;;;;;;;10.87;9.87;;;;;;;20.39;nan;99953.41;4976407;28;20891;-86
2023/05/02 11:53:58;;;;;;;12.53;10.03;;;;;;;20.61;nan;99951.31;4977521;28;20667;-85